Hammonia Galicia — CQHW — position and weather

sailwx.info

Track history (hours):
 
Tides and Currents Weather Stations Pressure Air Temp Water Temp Dewpoint Dewpoint Depression Visibility Wind Speed Wind Dir Waves Ship Positions

Hammonia Galicia

Last reported at 2018-Jan-09 16:11 UTC. Time now 2018-Jan-20 02:59 UTC.
Position N 01°16' E 104°07'.
Warning: this ship's position is 10 days out of date.

Length 269 m; draft 9.3 m.

Type: Ship. MMSI: 255805598.

Date/timePositionNaut miles runAvg speedWind from/ knotsBaromVisibWave heightAir tempDewpointWater temp
2018-Jan-09 16:11N 01°16' E 104°07'413.6
2018-Jan-09 15:53N 01°15' E 104°03'613.7
2018-Jan-09 15:26N 01°14' E 103°57'510.2
2018-Jan-09 14:57N 01°14' E 103°52'2 0.3
2018-Jan-09 06:43N 01°16' E 103°51'0 1.0
2018-Jan-09 06:15N 01°15' E 103°51'1 5.0
2018-Jan-09 05:59N 01°15' E 103°52'2 4.3
2018-Jan-09 05:30N 01°13' E 103°54'2 3.2
2018-Jan-09 04:59N 01°12' E 103°53'2 5.0
2018-Jan-09 04:30N 01°11' E 103°51'3 5.1
2018-Jan-09 03:59N 01°10' E 103°48'3 5.6
2018-Jan-09 03:30N 01°08' E 103°46'3 5.9
2018-Jan-09 02:59N 01°06' E 103°44'3 5.5
2018-Jan-09 02:30N 01°04' E 103°42'4 8.0
2018-Jan-09 01:59N 01°03' E 103°38'3 5.8
2018-Jan-09 01:30N 01°05' E 103°36'4 6.0
2018-Jan-09 00:54N 01°06' E 103°32'2 6.1
2018-Jan-09 00:30N 01°08' E 103°30'3 6.5
2018-Jan-08 23:59N 01°10' E 103°28'611.8
2018-Jan-08 23:30N 01°13' E 103°23'  
Track history (hours):
 
Tides and Currents Weather Stations Pressure Air Temp Water Temp Dewpoint Dewpoint Depression Visibility Wind Speed Wind Dir Waves Ship Positions

Hammonia Galicia

Last reported at 2018-Jan-09 16:11 UTC. Time now 2018-Jan-20 02:59 UTC.
Position N 01°16' E 104°07'.
Warning: this ship's position is 10 days out of date.

Length 269 m; draft 9.3 m.

Type: Ship. MMSI: 255805598.

Date/timePositionNaut miles runAvg speedWind from/ knotsBaromVisibWave heightAir tempDewpointWater temp
2018-Jan-09 16:11N 01°16' E 104°07'413.6
2018-Jan-09 15:53N 01°15' E 104°03'613.7
2018-Jan-09 15:26N 01°14' E 103°57'510.2
2018-Jan-09 14:57N 01°14' E 103°52'2 0.3
2018-Jan-09 06:43N 01°16' E 103°51'0 1.0
2018-Jan-09 06:15N 01°15' E 103°51'1 5.0
2018-Jan-09 05:59N 01°15' E 103°52'2 4.3
2018-Jan-09 05:30N 01°13' E 103°54'2 3.2
2018-Jan-09 04:59N 01°12' E 103°53'2 5.0
2018-Jan-09 04:30N 01°11' E 103°51'3 5.1
2018-Jan-09 03:59N 01°10' E 103°48'3 5.6
2018-Jan-09 03:30N 01°08' E 103°46'3 5.9
2018-Jan-09 02:59N 01°06' E 103°44'3 5.5
2018-Jan-09 02:30N 01°04' E 103°42'4 8.0
2018-Jan-09 01:59N 01°03' E 103°38'3 5.8
2018-Jan-09 01:30N 01°05' E 103°36'4 6.0
2018-Jan-09 00:54N 01°06' E 103°32'2 6.1
2018-Jan-09 00:30N 01°08' E 103°30'3 6.5
2018-Jan-08 23:59N 01°10' E 103°28'611.8
2018-Jan-08 23:30N 01°13' E 103°23'  

Dump ship's entire track history